San Juan, PR

9:01 PM AST on August 28, 2014 (GMT -0400)
Condado, Calle Earle, At The Ocean | Change Station
CLOSE
Current Station
Personal Weather Station
Location: San Juan, SAN JUAN
Elevation: 10 ft
Nearby Weather Stations

Elev 10 ft 18.46 °N, 66.07 °W | Updated 1 second ago

Partly Cloudy
Partly Cloudy
82.8 °F
Feels Like 89 °F
N
2.0
Wind Variable Wind from SE
Gusts 4.0 mph

Today
High -- | Low -- °F
--% Chance of Precip.
Yesterday
High -- | Low -- °F
Precip. -- in
6:09 AM 6:41 PM
Waxing Crescent, 11% visible
Pressure 30.02 in
Visibility 10.0 miles
Clouds Few 2800 ft
Heat Index 89 °F
Dew Point 74 °F
Humidity 75%
Rainfall 0.00 in
Snow Depth Not available.
UV 0 out of 12
Pollen Not available.
Air Quality Not available.
Flu Activity Not available.
METAR TJSJ 290056Z 00000KT 10SM FEW028 28/23 A3002 RMK AO2 SLP164 T02830233

More Conditions Fewer Conditions

Pressure 30.02 in
Visibility 10.0 miles
Clouds Few 2800 ft
Heat Index 89 °F
Dew Point 74 °F
Humidity 75%
Rainfall 0.00 in
Snow Depth Not available.
UV 0 out of 12
Pollen Not available.
Air Quality Not available.
Flu Activity Not available.
METAR TJSJ 290056Z 00000KT 10SM FEW028 28/23 A3002 RMK AO2 SLP164 T02830233

More Conditions Fewer Conditions

10-Day Weather Forecast

Almanac

Astronomy

Aug. 28, 2014 Rise Set
Actual Time 6:09 AM AST 6:41 PM AST
Civil Twilight 5:46 AM AST 7:04 PM AST
Nautical Twilight 5:20 AM AST 7:30 PM AST
Astronomical Twilight 4:54 AM AST 7:56 PM AST
Moon 8:28 AM AST (8/28) 8:36 PM AST (8/28)
Length of Visible Light 13h 17m
Length of Day
12h 32m
Tomorrow will be 0m 58s shorter.
Waxing Crescent, 11% of the Moon is Illuminated
Today
Waxing Crescent
Sep 2
First Quarter
Sep 8
Full
Sep 15
Last Quarter
Sep 24
New

Community

WunderPhotos

Upload Photos

1,748,121 photos uploaded!

Nearby

Snow Depth

Station Depth Elevation
No new snow has been reported.

Earthquake Activity

City Distance Mag. Time & Date
No recent earthquake activity has been reported nearby.
Minimum magnitude displayed is 2.5.

Coastal Water Temperatures

Place Temperature
San Juan, PR 84.9 °F
Mayaguez, PR 84.0 °F
Esperanza, PR 84.0 °F

Nearby Weather Stations